Buoy 16575

sailwx.info

Track history (hours):
 
Tides and Currents Weather Stations Pressure Air Temp Water Temp Dewpoint Dewpoint Depression Visibility Wind Speed Wind Dir Waves Ship Positions

Drifting buoy 16575

Last reported at 2015-Jan-31 17:10 UTC. Time now 2015-Jan-31 19:20 UTC.
Position S 28°24' E 050°20'.

Water temperature 25.7 ° C

Date/timePositionNaut miles runAvg speedWind from/ knotsBaromVisibWave heightAir tempDewpointWater temp
2015-Jan-31 17:10S 28°24' E 050°20'2 0.9 25.7
2015-Jan-31 15:10S 28°25' E 050°22'0 0.4 25.7
2015-Jan-31 14:10S 28°25' E 050°22'0 0.2 25.8
2015-Jan-31 13:10S 28°25' E 050°22'0 0.4 25.8
2015-Jan-31 12:10S 28°25' E 050°22'0 0.1 25.8
2015-Jan-31 11:10S 28°25' E 050°22'0 0.4 25.8
2015-Jan-31 10:10S 28°26' E 050°22'0 0.0 25.8
2015-Jan-31 09:10S 28°26' E 050°22'1 0.3 25.8
2015-Jan-31 06:10S 28°25' E 050°23'0 0.2 25.7
2015-Jan-31 05:10S 28°25' E 050°23'0 0.2 25.8
2015-Jan-31 03:10S 28°24' E 050°23'1 0.5 25.8
2015-Jan-31 02:10S 28°24' E 050°23'1 1.1 25.8
2015-Jan-31 01:10S 28°23' E 050°24'0 0.1 25.8
2015-Jan-31 00:10S 28°23' E 050°24'1 0.5 25.9
2015-Jan-30 22:10S 28°23' E 050°25'2 1.2 25.9
2015-Jan-30 20:10S 28°24' E 050°28'1 0.6 26.0
2015-Jan-30 19:10S 28°24' E 050°29'0 0.0 26.0
2015-Jan-30 18:10S 28°24' E 050°29'1 0.3 26.0
2015-Jan-30 15:10S 28°25' E 050°29'1 0.6 26.0
2015-Jan-30 14:10S 28°25' E 050°29'0 0.3 26.2
2015-Jan-30 13:10S 28°25' E 050°30'0 0.5 26.3
2015-Jan-30 12:10S 28°26' E 050°30'0 0.0 26.3
2015-Jan-30 11:10S 28°26' E 050°30'0 0.2 26.3
2015-Jan-30 09:10S 28°26' E 050°30'0 0.3 26.2
2015-Jan-30 08:10S 28°26' E 050°30'0 0.0 26.1
2015-Jan-30 07:10S 28°26' E 050°30'0 0.3 26.0
2015-Jan-30 06:10S 28°26' E 050°29'0 0.1 25.9
2015-Jan-30 05:10S 28°26' E 050°29'0 0.2 25.8
2015-Jan-30 04:10S 28°26' E 050°30'0 0.4 25.8
2015-Jan-30 03:10S 28°26' E 050°29'0 0.1 25.8
2015-Jan-30 02:10S 28°26' E 050°29'0 0.4 25.8
2015-Jan-30 01:10S 28°26' E 050°30'1 0.6 25.9
2015-Jan-30 00:10S 28°26' E 050°29'1 0.6 26.0
2015-Jan-29 23:10S 28°26' E 050°30'0 0.1 26.0
2015-Jan-29 22:10S 28°25' E 050°30'0 0.2 26.0
2015-Jan-29 21:10S 28°26' E 050°30'1 0.4 26.2
2015-Jan-29 19:10S 28°26' E 050°30'0 0.0 26.5
2015-Jan-29 18:10S 28°26' E 050°30'2 0.9 26.8
2015-Jan-29 16:10S 28°27' E 050°29'0 0.0 27.2
2015-Jan-29 15:10S 28°27' E 050°29'0 0.1 27.5
2015-Jan-29 14:10S 28°27' E 050°29'1 1.0 27.7
2015-Jan-29 13:10S 28°28' E 050°28'0 0.0 27.7
2015-Jan-29 12:10S 28°28' E 050°28'1 0.6 27.5
2015-Jan-29 11:10S 28°28' E 050°28'1 1.2 27.2
2015-Jan-29 10:10S 28°28' E 050°26'0 0.1 26.8
2015-Jan-29 09:10S 28°28' E 050°26'1 0.7 26.4
2015-Jan-29 07:10S 28°28' E 050°25'1 0.4 26.0
2015-Jan-29 05:10S 28°28' E 050°24'1 0.9 25.7
2015-Jan-29 04:10S 28°27' E 050°23'0 0.1 25.6
2015-Jan-29 03:10S 28°27' E 050°23'1 0.6 25.6
2015-Jan-29 02:10S 28°27' E 050°23'0 0.2 25.6
2015-Jan-29 01:10S 28°26' E 050°23'0 0.3 25.6
2015-Jan-29 00:10S 28°26' E 050°22'1 0.2 25.7
2015-Jan-28 21:10S 28°26' E 050°23'1 0.5 25.7
2015-Jan-28 20:10S 28°26' E 050°23'0 0.1 25.7
2015-Jan-28 19:10S 28°26' E 050°23'0 0.2 25.8
2015-Jan-28 18:10S 28°26' E 050°24'0 0.3 25.8
2015-Jan-28 17:10S 28°27' E 050°24'1 0.2 25.8
2015-Jan-28 14:10S 28°27' E 050°24'0 0.4 26.0
2015-Jan-28 13:10S 28°27' E 050°24'0 0.0 26.0
2015-Jan-28 12:10S 28°27' E 050°24'0 0.1 26.0
2015-Jan-28 11:10S 28°27' E 050°24'1 0.4 26.0
2015-Jan-28 09:10S 28°27' E 050°24'0 0.0 25.8
2015-Jan-28 07:10S 28°27' E 050°24'0 0.1 25.7
2015-Jan-28 06:10S 28°27' E 050°24'0 0.2 25.6
2015-Jan-28 05:10S 28°26' E 050°24'0 0.2 25.6
2015-Jan-28 04:10S 28°26' E 050°24'0 0.2 25.6
2015-Jan-28 03:10S 28°26' E 050°24'1 0.8 25.6
2015-Jan-28 02:10S 28°26' E 050°23'1 0.6 25.6
2015-Jan-28 01:10S 28°26' E 050°24'0 0.3 25.6
2015-Jan-28 00:10S 28°26' E 050°24'0 0.3 25.6
2015-Jan-27 23:10S 28°26' E 050°24'0 0.2 25.6
2015-Jan-27 21:10S 28°25' E 050°24'1 0.4 25.6
2015-Jan-27 19:10S 28°25' E 050°25'0 0.2 25.6
2015-Jan-27 18:10S 28°25' E 050°25'0 0.2 25.6
2015-Jan-27 17:10S 28°25' E 050°25'0 0.1 25.6
2015-Jan-27 15:10S 28°25' E 050°25'0 0.2 25.7
2015-Jan-27 13:10S 28°25' E 050°25'0 0.3 25.8
2015-Jan-27 12:10S 28°25' E 050°25'0 0.1 25.8
2015-Jan-27 11:10S 28°26' E 050°25'0 0.2 25.8
2015-Jan-27 10:10S 28°26' E 050°25'0 0.0 25.8
2015-Jan-27 09:10S 28°26' E 050°25'1 0.2 25.7
2015-Jan-27 04:10S 28°27' E 050°26'1 0.3 25.6
2015-Jan-27 02:10S 28°26' E 050°25'0 0.4 25.6
2015-Jan-27 01:10S 28°26' E 050°26'1 0.6 25.6
2015-Jan-26 23:10S 28°25' E 050°27'0 0.1 25.6
2015-Jan-26 22:10S 28°25' E 050°27'0 0.0 25.6
2015-Jan-26 21:10S 28°25' E 050°27'1 0.7 25.6
2015-Jan-26 19:10S 28°26' E 050°28'0 0.4 25.6
2015-Jan-26 18:10S 28°26' E 050°28'1 0.4 25.6
2015-Jan-26 15:10S 28°27' E 050°29'0 0.2 25.6
2015-Jan-26 14:10S 28°27' E 050°29'0 0.5 25.7
2015-Jan-26 13:10S 28°27' E 050°28'1 0.5 25.7
2015-Jan-26 12:10S 28°28' E 050°29'1 0.3 25.7
2015-Jan-26 10:10S 28°28' E 050°29'0 0.0 25.7
2015-Jan-26 09:10S 28°28' E 050°29'0 0.0 25.6
2015-Jan-26 06:10S 28°29' E 050°29'0 0.4 25.6
2015-Jan-26 05:10S 28°28' E 050°29'0 0.4 25.6
2015-Jan-26 04:10S 28°28' E 050°29'0 0.0 25.5
2015-Jan-26 03:10S 28°28' E 050°29'1 0.3 25.5
2015-Jan-26 01:10S 28°28' E 050°29'1 0.3 25.6
2015-Jan-25 21:10S 28°26' E 050°29'1 0.7 25.6
2015-Jan-25 20:10S 28°26' E 050°30'1 0.3 25.6
2015-Jan-25 18:10S 28°27' E 050°30'0 0.1 25.6
2015-Jan-25 17:10S 28°27' E 050°30'1 1.0 25.6
2015-Jan-25 16:10S 28°28' E 050°31'0 0.0 25.6
2015-Jan-25 15:10S 28°28' E 050°31'1 0.6 25.6
2015-Jan-25 14:10S 28°28' E 050°31'0 0.3 25.6
2015-Jan-25 13:10S 28°28' E 050°31'0 0.3 25.6
2015-Jan-25 12:10S 28°28' E 050°30'0 0.1 25.6
2015-Jan-25 11:10S 28°28' E 050°30'0 0.0 25.6
2015-Jan-25 10:10S 28°28' E 050°30'1 0.1 25.6
2015-Jan-25 06:10S 28°28' E 050°30'1 0.6 25.5
2015-Jan-25 05:10S 28°28' E 050°30'1 0.3 25.5
2015-Jan-25 03:10S 28°28' E 050°29'1 0.4 25.5
2015-Jan-25 01:10S 28°28' E 050°28'0 0.2 25.5
2015-Jan-25 00:10S 28°28' E 050°28'1 1.1 25.5
2015-Jan-24 23:10S 28°28' E 050°27'0 0.0 25.5
2015-Jan-24 22:10S 28°28' E 050°27'2 0.8 25.5
2015-Jan-24 20:10S 28°29' E 050°29'1 0.8 25.5
2015-Jan-24 19:10S 28°29' E 050°30'0 0.0 25.5
2015-Jan-24 18:10S 28°29' E 050°30'1 0.7 25.6
2015-Jan-24 17:10S 28°29' E 050°29'1 1.0 25.6
2015-Jan-24 16:10S 28°30' E 050°30'0 0.4 25.6
2015-Jan-24 15:10S 28°31' E 050°29'1 0.8 25.6
2015-Jan-24 14:10S 28°31' E 050°30'0 0.2 25.6
2015-Jan-24 13:10S 28°31' E 050°30'1 1.1 25.6
2015-Jan-24 12:10S 28°33' E 050°29'3 1.7 25.6
2015-Jan-24 10:10S 28°35' E 050°27'0 0.0 25.5
2015-Jan-24 09:10S 28°35' E 050°27'0 0.0 25.4
2015-Jan-24 06:10S 28°35' E 050°27'0 0.2 25.3
2015-Jan-24 05:10S 28°35' E 050°27'0 0.5 25.3
2015-Jan-24 04:10S 28°35' E 050°27'0 0.5 25.3
2015-Jan-24 03:10S 28°35' E 050°26'0 0.1 25.3
2015-Jan-24 02:10S 28°35' E 050°26'0 0.3 25.3
2015-Jan-24 01:10S 28°35' E 050°26'0 0.4 25.3
2015-Jan-24 00:10S 28°35' E 050°26'0 0.2 25.3
2015-Jan-23 23:10S 28°35' E 050°26'1 0.7 25.3
2015-Jan-23 22:10S 28°36' E 050°25'1 1.1 25.3
2015-Jan-23 21:10S 28°36' E 050°24'0 0.1 25.3
2015-Jan-23 20:10S 28°36' E 050°24'0 0.2 25.3
2015-Jan-23 18:10S 28°36' E 050°24'0 0.5 25.4
2015-Jan-23 17:10S 28°37' E 050°23'1 0.5 25.3
2015-Jan-23 14:10S 28°38' E 050°24'0 0.3 25.0
2015-Jan-23 13:10S 28°38' E 050°24'2 2.4 25.0
2015-Jan-23 12:10S 28°41' E 050°23'0 0.0 25.0
2015-Jan-23 11:10S 28°41' E 050°23'1 1.0 25.0
2015-Jan-23 10:10S 28°42' E 050°23'0 0.2 25.1
2015-Jan-23 09:10S 28°42' E 050°23'1 0.4 25.1
2015-Jan-23 06:10S 28°43' E 050°22'0 0.3 25.1
2015-Jan-23 05:10S 28°43' E 050°22'0 0.5 25.1
2015-Jan-23 04:10S 28°43' E 050°23'0 0.1 25.0
2015-Jan-23 03:10S 28°43' E 050°23'1 0.4 25.0
2015-Jan-23 01:10S 28°44' E 050°23'0 0.0 24.9
2015-Jan-23 00:10S 28°44' E 050°23'1 0.4 24.8
2015-Jan-22 22:10S 28°44' E 050°23'2 1.6 24.8
2015-Jan-22 21:10S 28°46' E 050°22'1 0.5 24.8
2015-Jan-22 19:10S 28°46' E 050°21'1 1.0 24.8
2015-Jan-22 18:10S 28°47' E 050°21'0 0.2 24.8
2015-Jan-22 17:10S 28°47' E 050°21'1 0.4 24.8
2015-Jan-22 15:10S 28°48' E 050°21'1 1.1 24.8
2015-Jan-22 14:10S 28°49' E 050°21'3 1.6 24.8
2015-Jan-22 12:10S 28°52' E 050°21'2 1.9 24.8
2015-Jan-22 11:10S 28°54' E 050°21'0 0.0 24.7
2015-Jan-22 10:10S 28°54' E 050°21'2 0.5 24.7
2015-Jan-22 06:10S 28°56' E 050°21'3 1.1 24.5
2015-Jan-22 03:10S 28°59' E 050°20'1 0.5 24.5
2015-Jan-22 01:10S 29°00' E 050°20'0 0.0 24.5
2015-Jan-22 00:10S 29°00' E 050°20'1 0.6 24.5
2015-Jan-21 22:10S 29°01' E 050°19'1 0.7 24.5
2015-Jan-21 20:10S 29°02' E 050°19'0 0.2 24.5
2015-Jan-21 19:10S 29°03' E 050°20'1 0.7 24.5
2015-Jan-21 18:10S 29°03' E 050°19'   24.5
Track history (hours):
 
Tides and Currents Weather Stations Pressure Air Temp Water Temp Dewpoint Dewpoint Depression Visibility Wind Speed Wind Dir Waves Ship Positions

Drifting buoy 16575

Last reported at 2015-Jan-31 17:10 UTC. Time now 2015-Jan-31 19:20 UTC.
Position S 28°24' E 050°20'.

Water temperature 25.7 ° C

Date/timePositionNaut miles runAvg speedWind from/ knotsBaromVisibWave heightAir tempDewpointWater temp
2015-Jan-31 17:10S 28°24' E 050°20'2 0.9 25.7
2015-Jan-31 15:10S 28°25' E 050°22'0 0.4 25.7
2015-Jan-31 14:10S 28°25' E 050°22'0 0.2 25.8
2015-Jan-31 13:10S 28°25' E 050°22'0 0.4 25.8
2015-Jan-31 12:10S 28°25' E 050°22'0 0.1 25.8
2015-Jan-31 11:10S 28°25' E 050°22'0 0.4 25.8
2015-Jan-31 10:10S 28°26' E 050°22'0 0.0 25.8
2015-Jan-31 09:10S 28°26' E 050°22'1 0.3 25.8
2015-Jan-31 06:10S 28°25' E 050°23'0 0.2 25.7
2015-Jan-31 05:10S 28°25' E 050°23'0 0.2 25.8
2015-Jan-31 03:10S 28°24' E 050°23'1 0.5 25.8
2015-Jan-31 02:10S 28°24' E 050°23'1 1.1 25.8
2015-Jan-31 01:10S 28°23' E 050°24'0 0.1 25.8
2015-Jan-31 00:10S 28°23' E 050°24'1 0.5 25.9
2015-Jan-30 22:10S 28°23' E 050°25'2 1.2 25.9
2015-Jan-30 20:10S 28°24' E 050°28'1 0.6 26.0
2015-Jan-30 19:10S 28°24' E 050°29'0 0.0 26.0
2015-Jan-30 18:10S 28°24' E 050°29'1 0.3 26.0
2015-Jan-30 15:10S 28°25' E 050°29'1 0.6 26.0
2015-Jan-30 14:10S 28°25' E 050°29'0 0.3 26.2
2015-Jan-30 13:10S 28°25' E 050°30'0 0.5 26.3
2015-Jan-30 12:10S 28°26' E 050°30'0 0.0 26.3
2015-Jan-30 11:10S 28°26' E 050°30'0 0.2 26.3
2015-Jan-30 09:10S 28°26' E 050°30'0 0.3 26.2
2015-Jan-30 08:10S 28°26' E 050°30'0 0.0 26.1
2015-Jan-30 07:10S 28°26' E 050°30'0 0.3 26.0
2015-Jan-30 06:10S 28°26' E 050°29'0 0.1 25.9
2015-Jan-30 05:10S 28°26' E 050°29'0 0.2 25.8
2015-Jan-30 04:10S 28°26' E 050°30'0 0.4 25.8
2015-Jan-30 03:10S 28°26' E 050°29'0 0.1 25.8
2015-Jan-30 02:10S 28°26' E 050°29'0 0.4 25.8
2015-Jan-30 01:10S 28°26' E 050°30'1 0.6 25.9
2015-Jan-30 00:10S 28°26' E 050°29'1 0.6 26.0
2015-Jan-29 23:10S 28°26' E 050°30'0 0.1 26.0
2015-Jan-29 22:10S 28°25' E 050°30'0 0.2 26.0
2015-Jan-29 21:10S 28°26' E 050°30'1 0.4 26.2
2015-Jan-29 19:10S 28°26' E 050°30'0 0.0 26.5
2015-Jan-29 18:10S 28°26' E 050°30'2 0.9 26.8
2015-Jan-29 16:10S 28°27' E 050°29'0 0.0 27.2
2015-Jan-29 15:10S 28°27' E 050°29'0 0.1 27.5
2015-Jan-29 14:10S 28°27' E 050°29'1 1.0 27.7
2015-Jan-29 13:10S 28°28' E 050°28'0 0.0 27.7
2015-Jan-29 12:10S 28°28' E 050°28'1 0.6 27.5
2015-Jan-29 11:10S 28°28' E 050°28'1 1.2 27.2
2015-Jan-29 10:10S 28°28' E 050°26'0 0.1 26.8
2015-Jan-29 09:10S 28°28' E 050°26'1 0.7 26.4
2015-Jan-29 07:10S 28°28' E 050°25'1 0.4 26.0
2015-Jan-29 05:10S 28°28' E 050°24'1 0.9 25.7
2015-Jan-29 04:10S 28°27' E 050°23'0 0.1 25.6
2015-Jan-29 03:10S 28°27' E 050°23'1 0.6 25.6
2015-Jan-29 02:10S 28°27' E 050°23'0 0.2 25.6
2015-Jan-29 01:10S 28°26' E 050°23'0 0.3 25.6
2015-Jan-29 00:10S 28°26' E 050°22'1 0.2 25.7
2015-Jan-28 21:10S 28°26' E 050°23'1 0.5 25.7
2015-Jan-28 20:10S 28°26' E 050°23'0 0.1 25.7
2015-Jan-28 19:10S 28°26' E 050°23'0 0.2 25.8
2015-Jan-28 18:10S 28°26' E 050°24'0 0.3 25.8
2015-Jan-28 17:10S 28°27' E 050°24'1 0.2 25.8
2015-Jan-28 14:10S 28°27' E 050°24'0 0.4 26.0
2015-Jan-28 13:10S 28°27' E 050°24'0 0.0 26.0
2015-Jan-28 12:10S 28°27' E 050°24'0 0.1 26.0
2015-Jan-28 11:10S 28°27' E 050°24'1 0.4 26.0
2015-Jan-28 09:10S 28°27' E 050°24'0 0.0 25.8
2015-Jan-28 07:10S 28°27' E 050°24'0 0.1 25.7
2015-Jan-28 06:10S 28°27' E 050°24'0 0.2 25.6
2015-Jan-28 05:10S 28°26' E 050°24'0 0.2 25.6
2015-Jan-28 04:10S 28°26' E 050°24'0 0.2 25.6
2015-Jan-28 03:10S 28°26' E 050°24'1 0.8 25.6
2015-Jan-28 02:10S 28°26' E 050°23'1 0.6 25.6
2015-Jan-28 01:10S 28°26' E 050°24'0 0.3 25.6
2015-Jan-28 00:10S 28°26' E 050°24'0 0.3 25.6
2015-Jan-27 23:10S 28°26' E 050°24'0 0.2 25.6
2015-Jan-27 21:10S 28°25' E 050°24'1 0.4 25.6
2015-Jan-27 19:10S 28°25' E 050°25'0 0.2 25.6
2015-Jan-27 18:10S 28°25' E 050°25'0 0.2 25.6
2015-Jan-27 17:10S 28°25' E 050°25'0 0.1 25.6
2015-Jan-27 15:10S 28°25' E 050°25'0 0.2 25.7
2015-Jan-27 13:10S 28°25' E 050°25'0 0.3 25.8
2015-Jan-27 12:10S 28°25' E 050°25'0 0.1 25.8
2015-Jan-27 11:10S 28°26' E 050°25'0 0.2 25.8
2015-Jan-27 10:10S 28°26' E 050°25'0 0.0 25.8
2015-Jan-27 09:10S 28°26' E 050°25'1 0.2 25.7
2015-Jan-27 04:10S 28°27' E 050°26'1 0.3 25.6
2015-Jan-27 02:10S 28°26' E 050°25'0 0.4 25.6
2015-Jan-27 01:10S 28°26' E 050°26'1 0.6 25.6
2015-Jan-26 23:10S 28°25' E 050°27'0 0.1 25.6
2015-Jan-26 22:10S 28°25' E 050°27'0 0.0 25.6
2015-Jan-26 21:10S 28°25' E 050°27'1 0.7 25.6
2015-Jan-26 19:10S 28°26' E 050°28'0 0.4 25.6
2015-Jan-26 18:10S 28°26' E 050°28'1 0.4 25.6
2015-Jan-26 15:10S 28°27' E 050°29'0 0.2 25.6
2015-Jan-26 14:10S 28°27' E 050°29'0 0.5 25.7
2015-Jan-26 13:10S 28°27' E 050°28'1 0.5 25.7
2015-Jan-26 12:10S 28°28' E 050°29'1 0.3 25.7
2015-Jan-26 10:10S 28°28' E 050°29'0 0.0 25.7
2015-Jan-26 09:10S 28°28' E 050°29'0 0.0 25.6
2015-Jan-26 06:10S 28°29' E 050°29'0 0.4 25.6
2015-Jan-26 05:10S 28°28' E 050°29'0 0.4 25.6
2015-Jan-26 04:10S 28°28' E 050°29'0 0.0 25.5
2015-Jan-26 03:10S 28°28' E 050°29'1 0.3 25.5
2015-Jan-26 01:10S 28°28' E 050°29'1 0.3 25.6
2015-Jan-25 21:10S 28°26' E 050°29'1 0.7 25.6
2015-Jan-25 20:10S 28°26' E 050°30'1 0.3 25.6
2015-Jan-25 18:10S 28°27' E 050°30'0 0.1 25.6
2015-Jan-25 17:10S 28°27' E 050°30'1 1.0 25.6
2015-Jan-25 16:10S 28°28' E 050°31'0 0.0 25.6
2015-Jan-25 15:10S 28°28' E 050°31'1 0.6 25.6
2015-Jan-25 14:10S 28°28' E 050°31'0 0.3 25.6
2015-Jan-25 13:10S 28°28' E 050°31'0 0.3 25.6
2015-Jan-25 12:10S 28°28' E 050°30'0 0.1 25.6
2015-Jan-25 11:10S 28°28' E 050°30'0 0.0 25.6
2015-Jan-25 10:10S 28°28' E 050°30'1 0.1 25.6
2015-Jan-25 06:10S 28°28' E 050°30'1 0.6 25.5
2015-Jan-25 05:10S 28°28' E 050°30'1 0.3 25.5
2015-Jan-25 03:10S 28°28' E 050°29'1 0.4 25.5
2015-Jan-25 01:10S 28°28' E 050°28'0 0.2 25.5
2015-Jan-25 00:10S 28°28' E 050°28'1 1.1 25.5
2015-Jan-24 23:10S 28°28' E 050°27'0 0.0 25.5
2015-Jan-24 22:10S 28°28' E 050°27'2 0.8 25.5
2015-Jan-24 20:10S 28°29' E 050°29'1 0.8 25.5
2015-Jan-24 19:10S 28°29' E 050°30'0 0.0 25.5
2015-Jan-24 18:10S 28°29' E 050°30'1 0.7 25.6
2015-Jan-24 17:10S 28°29' E 050°29'1 1.0 25.6
2015-Jan-24 16:10S 28°30' E 050°30'0 0.4 25.6
2015-Jan-24 15:10S 28°31' E 050°29'1 0.8 25.6
2015-Jan-24 14:10S 28°31' E 050°30'0 0.2 25.6
2015-Jan-24 13:10S 28°31' E 050°30'1 1.1 25.6
2015-Jan-24 12:10S 28°33' E 050°29'3 1.7 25.6
2015-Jan-24 10:10S 28°35' E 050°27'0 0.0 25.5
2015-Jan-24 09:10S 28°35' E 050°27'0 0.0 25.4
2015-Jan-24 06:10S 28°35' E 050°27'0 0.2 25.3
2015-Jan-24 05:10S 28°35' E 050°27'0 0.5 25.3
2015-Jan-24 04:10S 28°35' E 050°27'0 0.5 25.3
2015-Jan-24 03:10S 28°35' E 050°26'0 0.1 25.3
2015-Jan-24 02:10S 28°35' E 050°26'0 0.3 25.3
2015-Jan-24 01:10S 28°35' E 050°26'0 0.4 25.3
2015-Jan-24 00:10S 28°35' E 050°26'0 0.2 25.3
2015-Jan-23 23:10S 28°35' E 050°26'1 0.7 25.3
2015-Jan-23 22:10S 28°36' E 050°25'1 1.1 25.3
2015-Jan-23 21:10S 28°36' E 050°24'0 0.1 25.3
2015-Jan-23 20:10S 28°36' E 050°24'0 0.2 25.3
2015-Jan-23 18:10S 28°36' E 050°24'0 0.5 25.4
2015-Jan-23 17:10S 28°37' E 050°23'1 0.5 25.3
2015-Jan-23 14:10S 28°38' E 050°24'0 0.3 25.0
2015-Jan-23 13:10S 28°38' E 050°24'2 2.4 25.0
2015-Jan-23 12:10S 28°41' E 050°23'0 0.0 25.0
2015-Jan-23 11:10S 28°41' E 050°23'1 1.0 25.0
2015-Jan-23 10:10S 28°42' E 050°23'0 0.2 25.1
2015-Jan-23 09:10S 28°42' E 050°23'1 0.4 25.1
2015-Jan-23 06:10S 28°43' E 050°22'0 0.3 25.1
2015-Jan-23 05:10S 28°43' E 050°22'0 0.5 25.1
2015-Jan-23 04:10S 28°43' E 050°23'0 0.1 25.0
2015-Jan-23 03:10S 28°43' E 050°23'1 0.4 25.0
2015-Jan-23 01:10S 28°44' E 050°23'0 0.0 24.9
2015-Jan-23 00:10S 28°44' E 050°23'1 0.4 24.8
2015-Jan-22 22:10S 28°44' E 050°23'2 1.6 24.8
2015-Jan-22 21:10S 28°46' E 050°22'1 0.5 24.8
2015-Jan-22 19:10S 28°46' E 050°21'1 1.0 24.8
2015-Jan-22 18:10S 28°47' E 050°21'0 0.2 24.8
2015-Jan-22 17:10S 28°47' E 050°21'1 0.4 24.8
2015-Jan-22 15:10S 28°48' E 050°21'1 1.1 24.8
2015-Jan-22 14:10S 28°49' E 050°21'3 1.6 24.8
2015-Jan-22 12:10S 28°52' E 050°21'2 1.9 24.8
2015-Jan-22 11:10S 28°54' E 050°21'0 0.0 24.7
2015-Jan-22 10:10S 28°54' E 050°21'2 0.5 24.7
2015-Jan-22 06:10S 28°56' E 050°21'3 1.1 24.5
2015-Jan-22 03:10S 28°59' E 050°20'1 0.5 24.5
2015-Jan-22 01:10S 29°00' E 050°20'0 0.0 24.5
2015-Jan-22 00:10S 29°00' E 050°20'1 0.6 24.5
2015-Jan-21 22:10S 29°01' E 050°19'1 0.7 24.5
2015-Jan-21 20:10S 29°02' E 050°19'0 0.2 24.5
2015-Jan-21 19:10S 29°03' E 050°20'1 0.7 24.5
2015-Jan-21 18:10S 29°03' E 050°19'   24.5

Dump ship's entire track history